Vineland Cherry Ave.

*Note: All times are displayed in the local standard time of the station location.
**Rain - Equipment is designed to accurately record liquid precipitation; under conditions when precipitation is not in liquid form, the data displayed may not properly reflect rainfall values.

Date Max Temp
(°C)
Min Temp
(°C)
Avg Temp
(°C)
Rain (mm) Avg RH (%) Solar Rad (kJ/m2)
Fri, Aug 23, 2019 23.2 13.9 18.8 0.0 66.7 13935.6
Thu, Aug 22, 2019 24.4 17.0 20.8 0.0 62.7 11201.8
Wed, Aug 21, 2019 29.5 20.1 24.5 3.4 80.9 13239.8
Tue, Aug 20, 2019 30.1 15.2 23.2 0.0 77.4 13372.8
Mon, Aug 19, 2019 27.4 17.4 23.2 9.6 81.6 11124.2
Sun, Aug 18, 2019 28.9 18.5 23.7 12.0 84.3 11434.6
Sat, Aug 17, 2019 28.5 16.4 22.8 6.8 86.3 10706.5
DateTime Avg Temp (°C) Rain (mm) RH (%) Solar Rad (kJ/m2)
Sat, Aug 24, 2019 18:00 21.3 0.0 52.4 855.7
Sat, Aug 24, 2019 17:00 21.4 0.0 53.6 1269.0
Sat, Aug 24, 2019 16:00 21.6 0.0 51.3 1620.6
Sat, Aug 24, 2019 15:00 21.3 0.0 52.4 1856.9
Sat, Aug 24, 2019 14:00 21.0 0.0 58.6 1953.5
Sat, Aug 24, 2019 13:00 20.8 0.0 58.7 1856.1
Sat, Aug 24, 2019 12:00 20.4 0.0 62.3 1431.6
Sat, Aug 24, 2019 11:00 20.0 0.0 65.3 1369.5
Sat, Aug 24, 2019 10:00 19.2 0.0 68.6 984.0
Sat, Aug 24, 2019 09:00 18.4 0.0 71.0 577.3
Sat, Aug 24, 2019 08:00 16.8 0.0 75.5 191.5
Sat, Aug 24, 2019 07:00 16.0 0.0 78.4 8.1
Sat, Aug 24, 2019 06:00 14.9 0.0 82.2 0.0
Sat, Aug 24, 2019 05:00 16.8 0.0 72.6 0.0
Sat, Aug 24, 2019 04:00 16.5 0.0 75.7 0.0
Sat, Aug 24, 2019 03:00 16.6 0.0 73.1 0.0
Sat, Aug 24, 2019 02:00 16.6 0.0 73.0 0.0
Sat, Aug 24, 2019 01:00 16.9 0.0 71.4 0.0
Sat, Aug 24, 2019 00:00 17.4 0.0 68.2 0.0
Fri, Aug 23, 2019 23:00 18.2 0.0 65.3 0.0
Fri, Aug 23, 2019 22:00 19.5 0.0 57.5 0.0
Fri, Aug 23, 2019 21:00 19.2 0.0 62.3 0.3
Fri, Aug 23, 2019 20:00 19.9 0.0 61.5 70.9
Fri, Aug 23, 2019 19:00 21.4 0.0 51.6 317.5
Fri, Aug 23, 2019 18:00 21.8 0.0 47.1 403.6
Fri, Aug 23, 2019 17:00 22.9 0.0 46.0 1105.4
Fri, Aug 23, 2019 16:00 23.0 0.0 47.6 1603.3
Fri, Aug 23, 2019 15:00 22.5 0.0 49.8 1891.7
Fri, Aug 23, 2019 14:00 22.0 0.0 49.8 1956.6
Fri, Aug 23, 2019 13:00 21.4 0.0 56.2 1892.9
Fri, Aug 23, 2019 12:00 20.6 0.0 61.7 1682.8
Fri, Aug 23, 2019 11:00 20.0 0.0 66.8 1305.3
Fri, Aug 23, 2019 10:00 19.4 0.0 71.0 944.5
Fri, Aug 23, 2019 09:00 18.4 0.0 74.9 577.3
Fri, Aug 23, 2019 08:00 15.7 0.0 86.0 170.2
Fri, Aug 23, 2019 07:00 14.0 0.0 91.6 13.3
Fri, Aug 23, 2019 06:00 14.1 0.0 90.1 0.0
Fri, Aug 23, 2019 05:00 14.6 0.0 88.4 0.0
Fri, Aug 23, 2019 04:00 15.9 0.0 83.9 0.0
Fri, Aug 23, 2019 03:00 16.8 0.0 76.5 0.0
Fri, Aug 23, 2019 02:00 16.8 0.0 75.0 0.0
Fri, Aug 23, 2019 01:00 17.0 0.0 71.7 0.0
Fri, Aug 23, 2019 00:00 18.1 0.0 66.8 0.0
Thu, Aug 22, 2019 23:00 19.0 0.0 66.2 0.0
Thu, Aug 22, 2019 22:00 18.9 0.0 70.5 0.0
Thu, Aug 22, 2019 21:00 17.6 0.0 82.1 1.5
Thu, Aug 22, 2019 20:00 21.8 0.0 63.7 98.5
Thu, Aug 22, 2019 19:00 23.7 0.0 45.2 392.9


asterix Register now to access more data! asterix